American Princess — WDB6512 — position and weather

sailwx.info

Track history (hours):
 
Tides and Currents Weather Stations Pressure Air Temp Water Temp Dewpoint Dewpoint Depression Visibility Wind Speed Wind Dir Waves Ship Positions

American Princess

Owner: T.W.F.M. Ferry Inc., Neponsit, NY. More information available from US FCC via Universal Licensing System and Coast Guard Vessel Documentation Center.

Last reported at 2018-Jul-18 19:31 UTC. Time now 2018-Jul-19 09:54 UTC.
Position N 40°33' W 073°57'.

MMSI: 366854860.

Date/timePositionNaut miles runAvg speedWind from/ knotsBaromVisibWave heightAir tempDewpointWater temp
2018-Jul-18 19:31N 40°33' W 073°57'012.4
2018-Jul-18 19:29N 40°33' W 073°58'5 2.1
2018-Jul-18 16:55N 40°30' W 074°04'613.4
2018-Jul-18 16:29N 40°34' W 073°57'  
2018-Jul-16 02:40N 40°36' W 074°02'317.4
2018-Jul-16 02:30N 40°38' W 074°02'1 2.9
2018-Jul-16 02:00N 40°40' W 074°01'6 3.9
2018-Jul-16 00:28N 40°34' W 073°58'613.5
2018-Jul-16 00:00N 40°40' W 074°01'1 1.8
2018-Jul-15 23:30N 40°39' W 074°02'611.2
2018-Jul-15 23:00N 40°34' W 073°58'1 0.5
2018-Jul-15 21:59N 40°34' W 073°57'713.8
2018-Jul-15 21:30N 40°40' W 074°01'0 0.8
2018-Jul-15 21:00N 40°40' W 074°01'1 0.7
2018-Jul-15 19:05N 40°38' W 074°03'119.4
2018-Jul-15 19:00N 40°40' W 074°01'0 0.1
2018-Jul-15 18:30N 40°40' W 074°01'2 1.1
2018-Jul-15 16:39N 40°38' W 074°03'317.8
2018-Jul-15 16:30N 40°40' W 074°01'1 1.5
2018-Jul-15 16:00N 40°40' W 074°01'1 0.8
2018-Jul-15 14:06N 40°38' W 074°02'217.3
2018-Jul-15 14:00N 40°40' W 074°01'2 4.5
2018-Jul-15 13:27N 40°42' W 074°00'9 1.0
2018-Jul-15 03:59N 40°34' W 073°54'613.0
2018-Jul-15 03:30N 40°36' W 074°02'713.1
2018-Jul-15 03:00N 40°42' W 074°00'510.0
2018-Jul-15 02:30N 40°37' W 074°03'816.3
2018-Jul-15 02:00N 40°35' W 073°52'2 4.4
2018-Jul-15 01:29N 40°34' W 073°55'714.2
2018-Jul-15 01:01N 40°38' W 074°02'4 7.9
2018-Jul-15 00:30N 40°42' W 074°00'611.7
2018-Jul-15 00:00N 40°36' W 074°02'7 6.6
2018-Jul-14 22:54N 40°35' W 073°53'717.7
2018-Jul-14 22:30N 40°36' W 074°02'713.1
2018-Jul-14 22:00N 40°42' W 074°00'510.7
2018-Jul-14 21:30N 40°37' W 074°03'1 0.9
2018-Jul-14 20:00N 40°36' W 074°02'713.2
2018-Jul-14 19:30N 40°42' W 074°00'4 7.1
2018-Jul-14 19:00N 40°39' W 074°02'510.7
2018-Jul-14 18:30N 40°34' W 073°58'2 2.3
2018-Jul-14 17:38N 40°34' W 073°55'514.5
2018-Jul-14 17:16N 40°36' W 074°02'416.3
2018-Jul-14 17:00N 40°40' W 074°01'3 5.2
2018-Jul-14 16:30N 40°42' W 074°00'5 9.3
2018-Jul-14 16:00N 40°38' W 074°03'714.3
2018-Jul-14 15:30N 40°34' W 073°54'0 0.1
2018-Jul-14 14:49N 40°34' W 073°54'512.4
2018-Jul-14 14:25N 40°34' W 074°01'8 8.6
2018-Jul-14 13:30N 40°42' W 074°00'612.9
2018-Jul-14 13:01N 40°36' W 074°02'7 0.4
2018-Jul-13 20:41N 40°34' W 073°53'0 0.0
2018-Jul-13 20:24N 40°34' W 073°53'613.4
2018-Jul-13 19:56N 40°32' W 074°01'3 1.0
2018-Jul-13 16:36N 40°33' W 073°57'215.6
2018-Jul-13 16:30N 40°34' W 073°55'2 0.4
2018-Jul-13 12:10N 40°34' W 073°53'3 0.1
2018-Jul-12 16:30N 40°33' W 073°57'  
2018-Jul-09 03:27N 40°34' W 073°58'614.4
2018-Jul-09 03:00N 40°40' W 074°01'1 2.0
2018-Jul-09 02:30N 40°39' W 074°02'611.5
2018-Jul-09 02:00N 40°34' W 073°57'0 0.2
2018-Jul-09 01:15N 40°34' W 073°57'417.8
2018-Jul-09 01:00N 40°36' W 074°02'611.9
2018-Jul-09 00:31N 40°42' W 074°00'812.4
2018-Jul-08 23:52N 40°34' W 074°00'1 0.9
2018-Jul-08 22:40N 40°34' W 073°59'317.0
2018-Jul-08 22:29N 40°36' W 074°02'713.5
2018-Jul-08 22:00N 40°42' W 074°00'5 9.1
2018-Jul-08 21:30N 40°38' W 074°03'0 0.0
2018-Jul-08 19:42N 40°38' W 074°03'  
Track history (hours):
 
Tides and Currents Weather Stations Pressure Air Temp Water Temp Dewpoint Dewpoint Depression Visibility Wind Speed Wind Dir Waves Ship Positions

American Princess

Owner: T.W.F.M. Ferry Inc., Neponsit, NY. More information available from US FCC via Universal Licensing System and Coast Guard Vessel Documentation Center.

Last reported at 2018-Jul-18 19:31 UTC. Time now 2018-Jul-19 09:54 UTC.
Position N 40°33' W 073°57'.

MMSI: 366854860.

Date/timePositionNaut miles runAvg speedWind from/ knotsBaromVisibWave heightAir tempDewpointWater temp
2018-Jul-18 19:31N 40°33' W 073°57'012.4
2018-Jul-18 19:29N 40°33' W 073°58'5 2.1
2018-Jul-18 16:55N 40°30' W 074°04'613.4
2018-Jul-18 16:29N 40°34' W 073°57'  
2018-Jul-16 02:40N 40°36' W 074°02'317.4
2018-Jul-16 02:30N 40°38' W 074°02'1 2.9
2018-Jul-16 02:00N 40°40' W 074°01'6 3.9
2018-Jul-16 00:28N 40°34' W 073°58'613.5
2018-Jul-16 00:00N 40°40' W 074°01'1 1.8
2018-Jul-15 23:30N 40°39' W 074°02'611.2
2018-Jul-15 23:00N 40°34' W 073°58'1 0.5
2018-Jul-15 21:59N 40°34' W 073°57'713.8
2018-Jul-15 21:30N 40°40' W 074°01'0 0.8
2018-Jul-15 21:00N 40°40' W 074°01'1 0.7
2018-Jul-15 19:05N 40°38' W 074°03'119.4
2018-Jul-15 19:00N 40°40' W 074°01'0 0.1
2018-Jul-15 18:30N 40°40' W 074°01'2 1.1
2018-Jul-15 16:39N 40°38' W 074°03'317.8
2018-Jul-15 16:30N 40°40' W 074°01'1 1.5
2018-Jul-15 16:00N 40°40' W 074°01'1 0.8
2018-Jul-15 14:06N 40°38' W 074°02'217.3
2018-Jul-15 14:00N 40°40' W 074°01'2 4.5
2018-Jul-15 13:27N 40°42' W 074°00'9 1.0
2018-Jul-15 03:59N 40°34' W 073°54'613.0
2018-Jul-15 03:30N 40°36' W 074°02'713.1
2018-Jul-15 03:00N 40°42' W 074°00'510.0
2018-Jul-15 02:30N 40°37' W 074°03'816.3
2018-Jul-15 02:00N 40°35' W 073°52'2 4.4
2018-Jul-15 01:29N 40°34' W 073°55'714.2
2018-Jul-15 01:01N 40°38' W 074°02'4 7.9
2018-Jul-15 00:30N 40°42' W 074°00'611.7
2018-Jul-15 00:00N 40°36' W 074°02'7 6.6
2018-Jul-14 22:54N 40°35' W 073°53'717.7
2018-Jul-14 22:30N 40°36' W 074°02'713.1
2018-Jul-14 22:00N 40°42' W 074°00'510.7
2018-Jul-14 21:30N 40°37' W 074°03'1 0.9
2018-Jul-14 20:00N 40°36' W 074°02'713.2
2018-Jul-14 19:30N 40°42' W 074°00'4 7.1
2018-Jul-14 19:00N 40°39' W 074°02'510.7
2018-Jul-14 18:30N 40°34' W 073°58'2 2.3
2018-Jul-14 17:38N 40°34' W 073°55'514.5
2018-Jul-14 17:16N 40°36' W 074°02'416.3
2018-Jul-14 17:00N 40°40' W 074°01'3 5.2
2018-Jul-14 16:30N 40°42' W 074°00'5 9.3
2018-Jul-14 16:00N 40°38' W 074°03'714.3
2018-Jul-14 15:30N 40°34' W 073°54'0 0.1
2018-Jul-14 14:49N 40°34' W 073°54'512.4
2018-Jul-14 14:25N 40°34' W 074°01'8 8.6
2018-Jul-14 13:30N 40°42' W 074°00'612.9
2018-Jul-14 13:01N 40°36' W 074°02'7 0.4
2018-Jul-13 20:41N 40°34' W 073°53'0 0.0
2018-Jul-13 20:24N 40°34' W 073°53'613.4
2018-Jul-13 19:56N 40°32' W 074°01'3 1.0
2018-Jul-13 16:36N 40°33' W 073°57'215.6
2018-Jul-13 16:30N 40°34' W 073°55'2 0.4
2018-Jul-13 12:10N 40°34' W 073°53'3 0.1
2018-Jul-12 16:30N 40°33' W 073°57'  
2018-Jul-09 03:27N 40°34' W 073°58'614.4
2018-Jul-09 03:00N 40°40' W 074°01'1 2.0
2018-Jul-09 02:30N 40°39' W 074°02'611.5
2018-Jul-09 02:00N 40°34' W 073°57'0 0.2
2018-Jul-09 01:15N 40°34' W 073°57'417.8
2018-Jul-09 01:00N 40°36' W 074°02'611.9
2018-Jul-09 00:31N 40°42' W 074°00'812.4
2018-Jul-08 23:52N 40°34' W 074°00'1 0.9
2018-Jul-08 22:40N 40°34' W 073°59'317.0
2018-Jul-08 22:29N 40°36' W 074°02'713.5
2018-Jul-08 22:00N 40°42' W 074°00'5 9.1
2018-Jul-08 21:30N 40°38' W 074°03'0 0.0
2018-Jul-08 19:42N 40°38' W 074°03'  

Dump ship's entire track history